Terminal Aerodrome Forecast
Issued by NWS

Home | Current Version | Previous Version | Text Only | Print | Product List | Glossary On
Versions: 1 2 3 4 5 6 7 8 9 10 11 12 13 14 15 16 17 18 19 20 21 22 23 24 25 26 27 28 29
000
FTUS45 KFGZ 191000 AAA
TAFGCN
TAF AMD
KGCN 191050Z 1911/2006 00000KT 1/4SM FZFG VV001
      TEMPO 1911/1915 4SM BR BKN003
     FM191500 23005KT P6SM FEW080
     FM200200 VRB03KT P6SM BKN250=

USA.gov is the U.S. government's official web portal to all federal, state and local government web resources and services.